sensor_id;sensor_type;location;lat;lon;timestamp;pressure;altitude;pressure_sealevel;temperature;humidity
71151;BME280;59071;42.138;24.768;2022-10-16T00:00:35;100378.28;;;13.06;60.39
71151;BME280;59071;42.138;24.768;2022-10-16T00:03:02;100377.50;;;13.12;60.34
71151;BME280;59071;42.138;24.768;2022-10-16T00:05:27;100381.41;;;13.43;59.60
71151;BME280;59071;42.138;24.768;2022-10-16T00:07:52;100385.09;;;13.28;60.34
71151;BME280;59071;42.138;24.768;2022-10-16T00:10:18;100386.97;;;13.55;59.71
71151;BME280;59071;42.138;24.768;2022-10-16T00:12:43;100389.22;;;13.64;59.01
71151;BME280;59071;42.138;24.768;2022-10-16T00:15:09;100389.22;;;13.58;59.28
71151;BME280;59071;42.138;24.768;2022-10-16T00:17:34;100393.34;;;13.54;59.32
71151;BME280;59071;42.138;24.768;2022-10-16T00:20:00;100398.28;;;13.57;59.28
71151;BME280;59071;42.138;24.768;2022-10-16T00:22:26;100384.91;;;13.50;59.35
71151;BME280;59071;42.138;24.768;2022-10-16T00:24:51;100399.22;;;14.02;58.25
71151;BME280;59071;42.138;24.768;2022-10-16T00:27:16;100401.00;;;14.22;56.85
71151;BME280;59071;42.138;24.768;2022-10-16T00:29:42;100393.03;;;14.08;57.10
71151;BME280;59071;42.138;24.768;2022-10-16T00:32:08;100381.66;;;14.26;56.61
71151;BME280;59071;42.138;24.768;2022-10-16T00:34:34;100396.19;;;14.44;56.05
71151;BME280;59071;42.138;24.768;2022-10-16T00:36:59;100394.31;;;14.44;56.50
71151;BME280;59071;42.138;24.768;2022-10-16T00:39:25;100394.81;;;14.28;56.56
71151;BME280;59071;42.138;24.768;2022-10-16T00:41:50;100393.72;;;14.42;55.79
71151;BME280;59071;42.138;24.768;2022-10-16T00:44:42;100396.25;;;14.31;56.36
71151;BME280;59071;42.138;24.768;2022-10-16T00:47:10;100398.97;;;14.17;56.61
71151;BME280;59071;42.138;24.768;2022-10-16T00:49:38;100403.72;;;14.15;56.67
71151;BME280;59071;42.138;24.768;2022-10-16T00:52:03;100403.56;;;13.97;57.00
71151;BME280;59071;42.138;24.768;2022-10-16T00:54:31;100405.38;;;14.03;57.52
71151;BME280;59071;42.138;24.768;2022-10-16T00:57:00;100414.06;;;13.85;57.57
71151;BME280;59071;42.138;24.768;2022-10-16T00:59:27;100414.69;;;13.87;57.75
71151;BME280;59071;42.138;24.768;2022-10-16T01:01:54;100424.78;;;13.65;58.29
71151;BME280;59071;42.138;24.768;2022-10-16T01:04:20;100421.50;;;13.69;58.17
71151;BME280;59071;42.138;24.768;2022-10-16T01:06:51;100427.69;;;13.63;58.68
71151;BME280;59071;42.138;24.768;2022-10-16T01:09:57;100431.16;;;13.71;58.05
71151;BME280;59071;42.138;24.768;2022-10-16T01:18:13;100445.53;;;13.23;59.99
71151;BME280;59071;42.138;24.768;2022-10-16T01:21:04;100448.63;;;13.26;59.76
71151;BME280;59071;42.138;24.768;2022-10-16T01:29:20;100444.56;;;13.51;58.79
71151;BME280;59071;42.138;24.768;2022-10-16T01:31:50;100445.78;;;13.35;59.53
71151;BME280;59071;42.138;24.768;2022-10-16T01:34:22;100437.91;;;13.26;59.26
71151;BME280;59071;42.138;24.768;2022-10-16T01:36:57;100442.47;;;13.33;59.08
71151;BME280;59071;42.138;24.768;2022-10-16T01:39:29;100455.03;;;13.32;59.49
71151;BME280;59071;42.138;24.768;2022-10-16T01:42:07;100455.78;;;13.19;59.83
71151;BME280;59071;42.138;24.768;2022-10-16T01:44:35;100458.94;;;13.36;59.28
71151;BME280;59071;42.138;24.768;2022-10-16T01:47:03;100455.19;;;13.24;59.71
71151;BME280;59071;42.138;24.768;2022-10-16T01:49:34;100466.09;;;13.16;60.03
71151;BME280;59071;42.138;24.768;2022-10-16T01:52:05;100470.19;;;13.18;60.10
71151;BME280;59071;42.138;24.768;2022-10-16T01:54:34;100456.22;;;13.16;59.51
71151;BME280;59071;42.138;24.768;2022-10-16T01:57:01;100473.75;;;13.39;58.78
71151;BME280;59071;42.138;24.768;2022-10-16T01:59:30;100469.44;;;13.44;58.83
71151;BME280;59071;42.138;24.768;2022-10-16T02:01:59;100471.25;;;13.30;59.29
71151;BME280;59071;42.138;24.768;2022-10-16T02:04:29;100470.00;;;13.20;59.86
71151;BME280;59071;42.138;24.768;2022-10-16T02:06:57;100470.63;;;13.28;59.13
71151;BME280;59071;42.138;24.768;2022-10-16T02:09:22;100462.03;;;13.40;58.52
71151;BME280;59071;42.138;24.768;2022-10-16T02:11:48;100461.59;;;13.36;58.82
71151;BME280;59071;42.138;24.768;2022-10-16T02:14:16;100468.59;;;13.37;58.81
71151;BME280;59071;42.138;24.768;2022-10-16T02:16:45;100464.47;;;13.21;59.92
71151;BME280;59071;42.138;24.768;2022-10-16T02:19:15;100468.59;;;13.30;59.33
71151;BME280;59071;42.138;24.768;2022-10-16T02:21:56;100469.59;;;13.29;59.39
71151;BME280;59071;42.138;24.768;2022-10-16T02:26:57;100467.53;;;13.25;59.37
71151;BME280;59071;42.138;24.768;2022-10-16T02:29:27;100469.16;;;13.19;59.50
71151;BME280;59071;42.138;24.768;2022-10-16T02:32:02;100466.09;;;13.16;59.66
71151;BME280;59071;42.138;24.768;2022-10-16T02:34:30;100471.03;;;13.25;59.29
71151;BME280;59071;42.138;24.768;2022-10-16T02:36:58;100486.81;;;13.07;59.39
71151;BME280;59071;42.138;24.768;2022-10-16T02:39:27;100477.78;;;13.15;59.36
71151;BME280;59071;42.138;24.768;2022-10-16T02:41:53;100484.19;;;13.14;59.82
71151;BME280;59071;42.138;24.768;2022-10-16T02:44:18;100484.09;;;12.94;60.77
71151;BME280;59071;42.138;24.768;2022-10-16T02:46:43;100491.53;;;13.05;60.18
71151;BME280;59071;42.138;24.768;2022-10-16T02:49:09;100495.25;;;13.10;59.95
71151;BME280;59071;42.138;24.768;2022-10-16T02:51:34;100484.56;;;13.10;59.71
71151;BME280;59071;42.138;24.768;2022-10-16T02:54:02;100488.72;;;13.20;59.20
71151;BME280;59071;42.138;24.768;2022-10-16T02:56:27;100501.03;;;13.14;59.43
71151;BME280;59071;42.138;24.768;2022-10-16T02:58:52;100508.00;;;13.15;59.34
71151;BME280;59071;42.138;24.768;2022-10-16T03:01:18;100500.78;;;13.02;59.62
71151;BME280;59071;42.138;24.768;2022-10-16T03:03:43;100502.25;;;13.18;59.16
71151;BME280;59071;42.138;24.768;2022-10-16T03:06:09;100510.50;;;13.23;59.40
71151;BME280;59071;42.138;24.768;2022-10-16T03:08:34;100503.50;;;13.22;58.68
71151;BME280;59071;42.138;24.768;2022-10-16T03:11:00;100507.38;;;13.13;59.74
71151;BME280;59071;42.138;24.768;2022-10-16T03:13:25;100515.41;;;13.06;59.85
71151;BME280;59071;42.138;24.768;2022-10-16T03:15:51;100494.38;;;12.90;60.42
71151;BME280;59071;42.138;24.768;2022-10-16T03:18:16;100512.91;;;13.05;60.14
71151;BME280;59071;42.138;24.768;2022-10-16T03:20:45;100513.97;;;13.17;59.34
71151;BME280;59071;42.138;24.768;2022-10-16T03:23:10;100518.69;;;13.15;59.79
71151;BME280;59071;42.138;24.768;2022-10-16T03:25:36;100519.06;;;12.99;59.67
71151;BME280;59071;42.138;24.768;2022-10-16T03:28:01;100527.09;;;13.05;60.09
71151;BME280;59071;42.138;24.768;2022-10-16T03:30:27;100521.75;;;12.99;60.58
71151;BME280;59071;42.138;24.768;2022-10-16T03:32:52;100523.19;;;13.01;60.25
71151;BME280;59071;42.138;24.768;2022-10-16T03:35:23;100521.06;;;12.83;60.64
71151;BME280;59071;42.138;24.768;2022-10-16T03:37:49;100521.50;;;12.94;60.75
71151;BME280;59071;42.138;24.768;2022-10-16T03:40:14;100529.22;;;12.75;60.83
71151;BME280;59071;42.138;24.768;2022-10-16T03:42:42;100532.16;;;12.87;60.55
71151;BME280;59071;42.138;24.768;2022-10-16T03:45:08;100537.16;;;12.97;60.51
71151;BME280;59071;42.138;24.768;2022-10-16T03:47:34;100536.31;;;12.96;60.15
71151;BME280;59071;42.138;24.768;2022-10-16T03:49:59;100534.50;;;13.03;60.18
71151;BME280;59071;42.138;24.768;2022-10-16T03:52:25;100535.91;;;12.99;60.37
71151;BME280;59071;42.138;24.768;2022-10-16T03:54:51;100540.09;;;12.74;60.90
71151;BME280;59071;42.138;24.768;2022-10-16T03:57:16;100538.72;;;12.84;60.29
71151;BME280;59071;42.138;24.768;2022-10-16T03:59:42;100545.16;;;12.97;60.22
71151;BME280;59071;42.138;24.768;2022-10-16T04:02:08;100545.94;;;12.90;60.75
71151;BME280;59071;42.138;24.768;2022-10-16T04:04:34;100544.06;;;12.84;60.44
71151;BME280;59071;42.138;24.768;2022-10-16T04:06:59;100540.16;;;12.87;59.95
71151;BME280;59071;42.138;24.768;2022-10-16T04:09:25;100541.34;;;12.71;61.36
71151;BME280;59071;42.138;24.768;2022-10-16T04:11:50;100548.66;;;12.56;61.87
71151;BME280;59071;42.138;24.768;2022-10-16T04:14:15;100547.50;;;12.71;61.13
71151;BME280;59071;42.138;24.768;2022-10-16T04:16:41;100543.63;;;12.81;61.01
71151;BME280;59071;42.138;24.768;2022-10-16T04:19:06;100541.75;;;12.68;60.73
71151;BME280;59071;42.138;24.768;2022-10-16T04:21:32;100547.41;;;12.51;62.08
71151;BME280;59071;42.138;24.768;2022-10-16T04:23:57;100542.69;;;12.54;61.56
71151;BME280;59071;42.138;24.768;2022-10-16T04:26:23;100547.13;;;12.40;62.13
71151;BME280;59071;42.138;24.768;2022-10-16T04:28:48;100545.78;;;12.57;61.73
71151;BME280;59071;42.138;24.768;2022-10-16T04:31:13;100549.91;;;12.60;61.39
71151;BME280;59071;42.138;24.768;2022-10-16T04:33:42;100546.44;;;12.31;62.50
71151;BME280;59071;42.138;24.768;2022-10-16T04:36:08;100557.41;;;12.43;61.72
71151;BME280;59071;42.138;24.768;2022-10-16T04:38:33;100544.72;;;12.51;61.78
71151;BME280;59071;42.138;24.768;2022-10-16T04:40:59;100550.06;;;12.51;61.66
71151;BME280;59071;42.138;24.768;2022-10-16T04:43:25;100534.72;;;12.25;62.81
71151;BME280;59071;42.138;24.768;2022-10-16T04:45:51;100552.22;;;12.35;62.27
71151;BME280;59071;42.138;24.768;2022-10-16T04:48:17;100545.47;;;12.39;61.87
71151;BME280;59071;42.138;24.768;2022-10-16T04:50:43;100547.75;;;12.42;61.80
71151;BME280;59071;42.138;24.768;2022-10-16T04:53:08;100560.59;;;12.60;61.20
71151;BME280;59071;42.138;24.768;2022-10-16T04:55:34;100554.28;;;12.39;62.08
71151;BME280;59071;42.138;24.768;2022-10-16T04:58:00;100566.78;;;12.32;62.38
71151;BME280;59071;42.138;24.768;2022-10-16T05:00:25;100564.31;;;12.30;61.80
71151;BME280;59071;42.138;24.768;2022-10-16T05:02:51;100567.63;;;12.39;61.67
71151;BME280;59071;42.138;24.768;2022-10-16T05:05:16;100571.78;;;12.13;62.62
71151;BME280;59071;42.138;24.768;2022-10-16T05:07:44;100574.28;;;11.93;63.62
71151;BME280;59071;42.138;24.768;2022-10-16T05:10:10;100575.66;;;12.11;62.48
71151;BME280;59071;42.138;24.768;2022-10-16T05:12:35;100581.19;;;12.09;63.01
71151;BME280;59071;42.138;24.768;2022-10-16T05:15:00;100576.97;;;12.22;62.82
71151;BME280;59071;42.138;24.768;2022-10-16T05:17:26;100579.34;;;12.38;62.54
71151;BME280;59071;42.138;24.768;2022-10-16T05:19:51;100584.22;;;12.63;62.44
71151;BME280;59071;42.138;24.768;2022-10-16T05:22:17;100594.13;;;13.17;70.71
71151;BME280;59071;42.138;24.768;2022-10-16T05:24:43;100588.53;;;13.40;62.96
71151;BME280;59071;42.138;24.768;2022-10-16T05:27:09;100595.16;;;13.78;61.16
71151;BME280;59071;42.138;24.768;2022-10-16T05:29:36;100599.72;;;14.11;59.54
71151;BME280;59071;42.138;24.768;2022-10-16T05:32:01;100598.06;;;14.30;58.05
71151;BME280;59071;42.138;24.768;2022-10-16T05:34:26;100597.84;;;14.64;56.99
71151;BME280;59071;42.138;24.768;2022-10-16T05:36:52;100590.00;;;14.56;56.99
71151;BME280;59071;42.138;24.768;2022-10-16T05:39:17;100610.78;;;14.88;56.89
71151;BME280;59071;42.138;24.768;2022-10-16T05:41:43;100606.34;;;15.20;55.80
71151;BME280;59071;42.138;24.768;2022-10-16T05:44:09;100615.56;;;15.69;54.29
71151;BME280;59071;42.138;24.768;2022-10-16T05:46:34;100620.13;;;16.00;54.30
71151;BME280;59071;42.138;24.768;2022-10-16T05:48:59;100630.00;;;16.07;53.78
71151;BME280;59071;42.138;24.768;2022-10-16T05:51:25;100628.41;;;16.49;52.32
71151;BME280;59071;42.138;24.768;2022-10-16T05:53:52;100635.34;;;16.82;51.54
71151;BME280;59071;42.138;24.768;2022-10-16T05:56:17;100633.69;;;17.36;50.37
71151;BME280;59071;42.138;24.768;2022-10-16T05:58:42;100629.50;;;17.71;48.10
71151;BME280;59071;42.138;24.768;2022-10-16T06:01:17;100633.75;;;17.48;48.72
71151;BME280;59071;42.138;24.768;2022-10-16T06:03:43;100627.00;;;17.88;47.54
71151;BME280;59071;42.138;24.768;2022-10-16T06:06:17;100635.00;;;17.76;47.51
71151;BME280;59071;42.138;24.768;2022-10-16T06:08:43;100641.81;;;18.09;47.52
71151;BME280;59071;42.138;24.768;2022-10-16T06:11:14;100645.94;;;18.70;45.96
71151;BME280;59071;42.138;24.768;2022-10-16T06:13:39;100646.66;;;19.42;43.89
71151;BME280;59071;42.138;24.768;2022-10-16T06:16:08;100638.69;;;19.64;43.76
71151;BME280;59071;42.138;24.768;2022-10-16T06:18:33;100643.78;;;20.06;42.68
71151;BME280;59071;42.138;24.768;2022-10-16T06:20:59;100644.69;;;20.28;41.26
71151;BME280;59071;42.138;24.768;2022-10-16T06:23:25;100646.91;;;20.65;40.49
71151;BME280;59071;42.138;24.768;2022-10-16T06:25:50;100643.78;;;20.74;39.59
71151;BME280;59071;42.138;24.768;2022-10-16T06:28:16;100652.75;;;20.96;39.68
71151;BME280;59071;42.138;24.768;2022-10-16T06:30:42;100652.50;;;21.42;38.50
71151;BME280;59071;42.138;24.768;2022-10-16T06:33:11;100652.75;;;21.40;38.56
71151;BME280;59071;42.138;24.768;2022-10-16T06:35:36;100657.16;;;21.69;37.88
71151;BME280;59071;42.138;24.768;2022-10-16T06:38:02;100669.81;;;21.63;37.81
71151;BME280;59071;42.138;24.768;2022-10-16T06:40:27;100666.09;;;21.25;39.11
71151;BME280;59071;42.138;24.768;2022-10-16T06:42:55;100673.50;;;21.13;38.73
71151;BME280;59071;42.138;24.768;2022-10-16T06:45:20;100678.44;;;20.77;39.52
71151;BME280;59071;42.138;24.768;2022-10-16T06:47:46;100675.84;;;21.26;38.85
71151;BME280;59071;42.138;24.768;2022-10-16T06:50:11;100679.59;;;21.42;38.45
71151;BME280;59071;42.138;24.768;2022-10-16T06:52:36;100683.19;;;22.02;37.90
71151;BME280;59071;42.138;24.768;2022-10-16T06:55:02;100692.19;;;22.35;37.12
71151;BME280;59071;42.138;24.768;2022-10-16T06:57:28;100692.81;;;22.84;35.88
71151;BME280;59071;42.138;24.768;2022-10-16T06:59:54;100683.50;;;23.08;35.60
71151;BME280;59071;42.138;24.768;2022-10-16T07:02:19;100687.44;;;23.48;35.03
71151;BME280;59071;42.138;24.768;2022-10-16T07:04:45;100685.50;;;23.43;34.81
71151;BME280;59071;42.138;24.768;2022-10-16T07:07:10;100686.66;;;23.57;34.91
71151;BME280;59071;42.138;24.768;2022-10-16T07:09:35;100689.75;;;23.92;34.88
71151;BME280;59071;42.138;24.768;2022-10-16T07:12:01;100687.88;;;24.13;34.71
71151;BME280;59071;42.138;24.768;2022-10-16T07:14:26;100696.84;;;24.29;36.57
71151;BME280;59071;42.138;24.768;2022-10-16T07:16:52;100695.75;;;24.76;33.38
71151;BME280;59071;42.138;24.768;2022-10-16T07:19:18;100692.50;;;24.43;33.42
71151;BME280;59071;42.138;24.768;2022-10-16T07:21:43;100691.41;;;24.59;33.50
71151;BME280;59071;42.138;24.768;2022-10-16T07:24:14;100702.84;;;24.77;33.32
71151;BME280;59071;42.138;24.768;2022-10-16T07:26:41;100687.03;;;24.33;34.61
71151;BME280;59071;42.138;24.768;2022-10-16T07:29:13;100696.78;;;24.95;32.98
71151;BME280;59071;42.138;24.768;2022-10-16T07:31:39;100697.63;;;24.96;32.92
71151;BME280;59071;42.138;24.768;2022-10-16T07:34:05;100693.78;;;25.02;32.86
71151;BME280;59071;42.138;24.768;2022-10-16T07:36:30;100695.38;;;25.13;32.89
71151;BME280;59071;42.138;24.768;2022-10-16T07:38:56;100690.31;;;24.35;33.34
71151;BME280;59071;42.138;24.768;2022-10-16T07:41:21;100694.56;;;23.69;34.80
71151;BME280;59071;42.138;24.768;2022-10-16T07:43:48;100678.06;;;24.12;34.06
71151;BME280;59071;42.138;24.768;2022-10-16T07:46:14;100690.50;;;23.67;34.92
71151;BME280;59071;42.138;24.768;2022-10-16T07:48:40;100689.25;;;24.51;34.16
71151;BME280;59071;42.138;24.768;2022-10-16T07:51:06;100691.69;;;24.73;33.05
71151;BME280;59071;42.138;24.768;2022-10-16T07:53:32;100692.41;;;25.10;32.66
71151;BME280;59071;42.138;24.768;2022-10-16T07:56:03;100686.38;;;25.23;32.42
71151;BME280;59071;42.138;24.768;2022-10-16T07:58:29;100689.16;;;25.03;32.67
71151;BME280;59071;42.138;24.768;2022-10-16T08:00:56;100685.41;;;24.78;33.29
71151;BME280;59071;42.138;24.768;2022-10-16T08:03:23;100691.22;;;25.36;32.35
71151;BME280;59071;42.138;24.768;2022-10-16T08:05:48;100695.81;;;25.46;31.76
71151;BME280;59071;42.138;24.768;2022-10-16T08:08:15;100690.63;;;25.45;32.13
71151;BME280;59071;42.138;24.768;2022-10-16T08:10:41;100692.19;;;25.61;31.82
71151;BME280;59071;42.138;24.768;2022-10-16T08:13:07;100690.16;;;25.82;31.49
71151;BME280;59071;42.138;24.768;2022-10-16T08:15:32;100677.75;;;24.85;32.53
71151;BME280;59071;42.138;24.768;2022-10-16T08:18:02;100693.81;;;24.87;32.51
71151;BME280;59071;42.138;24.768;2022-10-16T08:20:29;100690.56;;;25.60;31.85
71151;BME280;59071;42.138;24.768;2022-10-16T08:22:55;100687.16;;;25.84;31.94
71151;BME280;59071;42.138;24.768;2022-10-16T08:25:22;100684.72;;;26.22;30.90
71151;BME280;59071;42.138;24.768;2022-10-16T08:27:48;100680.25;;;26.31;30.11
71151;BME280;59071;42.138;24.768;2022-10-16T08:30:14;100682.19;;;25.91;31.04
71151;BME280;59071;42.138;24.768;2022-10-16T08:32:40;100682.28;;;25.75;31.26
71151;BME280;59071;42.138;24.768;2022-10-16T08:35:10;100681.78;;;25.08;32.01
71151;BME280;59071;42.138;24.768;2022-10-16T08:37:36;100682.66;;;23.91;33.32
71151;BME280;59071;42.138;24.768;2022-10-16T08:40:02;100689.75;;;24.69;32.58
71151;BME280;59071;42.138;24.768;2022-10-16T08:45:15;100685.00;;;25.81;31.14
71151;BME280;59071;42.138;24.768;2022-10-16T08:47:55;100679.94;;;25.59;31.71
71151;BME280;59071;42.138;24.768;2022-10-16T08:50:26;100680.31;;;25.86;31.55
71151;BME280;59071;42.138;24.768;2022-10-16T08:52:53;100679.84;;;25.74;31.35
71151;BME280;59071;42.138;24.768;2022-10-16T08:55:30;100677.94;;;25.74;31.39
71151;BME280;59071;42.138;24.768;2022-10-16T08:57:58;100683.78;;;26.02;30.69
71151;BME280;59071;42.138;24.768;2022-10-16T09:00:24;100677.66;;;25.76;31.36
71151;BME280;59071;42.138;24.768;2022-10-16T09:03:04;100676.41;;;26.37;30.48
71151;BME280;59071;42.138;24.768;2022-10-16T09:11:12;100670.47;;;26.88;29.22
71151;BME280;59071;42.138;24.768;2022-10-16T09:16:31;100675.94;;;25.46;30.58
71151;BME280;59071;42.138;24.768;2022-10-16T09:21:38;100676.06;;;25.70;29.65
71151;BME280;59071;42.138;24.768;2022-10-16T09:24:14;100679.56;;;25.75;29.64
71151;BME280;59071;42.138;24.768;2022-10-16T09:26:39;100669.88;;;25.59;29.56
71151;BME280;59071;42.138;24.768;2022-10-16T09:29:05;100667.00;;;25.35;30.29
71151;BME280;59071;42.138;24.768;2022-10-16T09:31:30;100666.47;;;25.33;30.20
71151;BME280;59071;42.138;24.768;2022-10-16T09:34:00;100668.28;;;24.52;29.67
71151;BME280;59071;42.138;24.768;2022-10-16T09:36:40;100662.84;;;24.52;29.53
71151;BME280;59071;42.138;24.768;2022-10-16T09:39:09;100661.75;;;24.32;28.98
71151;BME280;59071;42.138;24.768;2022-10-16T09:41:39;100667.81;;;23.30;30.92
71151;BME280;59071;42.138;24.768;2022-10-16T09:44:26;100658.03;;;23.29;31.47
71151;BME280;59071;42.138;24.768;2022-10-16T09:49:37;100654.16;;;23.93;31.41
71151;BME280;59071;42.138;24.768;2022-10-16T09:52:13;100652.47;;;23.77;32.15
71151;BME280;59071;42.138;24.768;2022-10-16T09:54:57;100642.19;;;23.99;31.44
71151;BME280;59071;42.138;24.768;2022-10-16T09:57:24;100641.91;;;24.22;30.64
71151;BME280;59071;42.138;24.768;2022-10-16T09:59:55;100642.72;;;24.53;30.02
71151;BME280;59071;42.138;24.768;2022-10-16T10:02:33;100636.97;;;25.45;27.90
71151;BME280;59071;42.138;24.768;2022-10-16T10:04:59;100632.41;;;25.75;28.71
71151;BME280;59071;42.138;24.768;2022-10-16T10:07:28;100629.91;;;25.44;27.92
71151;BME280;59071;42.138;24.768;2022-10-16T10:09:59;100625.06;;;25.31;28.42
71151;BME280;59071;42.138;24.768;2022-10-16T10:12:27;100625.94;;;25.11;27.63
71151;BME280;59071;42.138;24.768;2022-10-16T10:14:55;100629.09;;;23.71;29.93
71151;BME280;59071;42.138;24.768;2022-10-16T10:27:26;100620.66;;;25.40;27.80
71151;BME280;59071;42.138;24.768;2022-10-16T10:30:13;100613.47;;;25.54;27.90
71151;BME280;59071;42.138;24.768;2022-10-16T10:35:22;100610.50;;;26.25;32.35
71151;BME280;59071;42.138;24.768;2022-10-16T10:38:06;100613.59;;;26.42;26.38
71151;BME280;59071;42.138;24.768;2022-10-16T10:46:05;100597.22;;;25.39;27.47
71151;BME280;59071;42.138;24.768;2022-10-16T10:51:23;100597.81;;;24.61;27.07
71151;BME280;59071;42.138;24.768;2022-10-16T10:54:14;100588.06;;;24.39;27.85
71151;BME280;59071;42.138;24.768;2022-10-16T10:56:58;100596.44;;;24.63;27.60
71151;BME280;59071;42.138;24.768;2022-10-16T10:59:32;100587.75;;;24.40;27.76
71151;BME280;59071;42.138;24.768;2022-10-16T11:07:26;100587.75;;;24.66;27.18
71151;BME280;59071;42.138;24.768;2022-10-16T11:09:57;100590.38;;;25.42;26.59
71151;BME280;59071;42.138;24.768;2022-10-16T11:12:40;100577.63;;;25.77;25.43
71151;BME280;59071;42.138;24.768;2022-10-16T11:15:19;100590.63;;;25.85;26.71
71151;BME280;59071;42.138;24.768;2022-10-16T11:20:53;100579.13;;;25.09;26.43
71151;BME280;59071;42.138;24.768;2022-10-16T11:26:20;100575.53;;;25.68;25.78
71151;BME280;59071;42.138;24.768;2022-10-16T11:28:51;100572.41;;;26.14;25.89
71151;BME280;59071;42.138;24.768;2022-10-16T11:32:01;100562.06;;;26.65;25.12
71151;BME280;59071;42.138;24.768;2022-10-16T11:37:14;100565.97;;;26.83;24.69
71151;BME280;59071;42.138;24.768;2022-10-16T11:39:44;100565.75;;;25.97;24.90
71151;BME280;59071;42.138;24.768;2022-10-16T11:42:44;100554.13;;;26.15;24.66
71151;BME280;59071;42.138;24.768;2022-10-16T11:45:36;100562.19;;;25.67;24.96
71151;BME280;59071;42.138;24.768;2022-10-16T11:51:14;100559.56;;;23.85;28.19
71151;BME280;59071;42.138;24.768;2022-10-16T11:53:53;100567.78;;;24.86;26.94
71151;BME280;59071;42.138;24.768;2022-10-16T11:56:21;100568.41;;;25.72;26.23
71151;BME280;59071;42.138;24.768;2022-10-16T11:59:00;100560.63;;;25.06;26.16
71151;BME280;59071;42.138;24.768;2022-10-16T12:01:52;100560.44;;;24.87;26.67
71151;BME280;59071;42.138;24.768;2022-10-16T12:04:34;100558.88;;;24.75;26.49
71151;BME280;59071;42.138;24.768;2022-10-16T12:07:07;100563.25;;;24.61;27.48
71151;BME280;59071;42.138;24.768;2022-10-16T12:09:38;100562.59;;;24.95;26.64
71151;BME280;59071;42.138;24.768;2022-10-16T12:12:05;100554.69;;;24.93;27.07
71151;BME280;59071;42.138;24.768;2022-10-16T12:15:41;100563.38;;;23.99;27.49
71151;BME280;59071;42.138;24.768;2022-10-16T12:17:47;100559.28;;;23.87;28.29
71151;BME280;59071;42.138;24.768;2022-10-16T12:22:48;100560.53;;;24.66;27.81
71151;BME280;59071;42.138;24.768;2022-10-16T12:25:27;100562.31;;;24.91;27.31
71151;BME280;59071;42.138;24.768;2022-10-16T12:28:01;100565.72;;;25.62;26.72
71151;BME280;59071;42.138;24.768;2022-10-16T12:30:29;100566.97;;;25.80;26.31
71151;BME280;59071;42.138;24.768;2022-10-16T12:33:00;100560.84;;;25.25;26.24
71151;BME280;59071;42.138;24.768;2022-10-16T12:35:30;100564.00;;;25.37;25.90
71151;BME280;59071;42.138;24.768;2022-10-16T12:38:16;100557.59;;;24.37;27.45
71151;BME280;59071;42.138;24.768;2022-10-16T12:40:44;100558.56;;;24.82;28.32
71151;BME280;59071;42.138;24.768;2022-10-16T12:43:35;100569.03;;;24.39;27.39
71151;BME280;59071;42.138;24.768;2022-10-16T12:48:34;100563.06;;;24.11;28.49
71151;BME280;59071;42.138;24.768;2022-10-16T12:54:20;100569.00;;;24.44;27.77
71151;BME280;59071;42.138;24.768;2022-10-16T13:30:00;100581.78;;;24.38;27.88
71151;BME280;59071;42.138;24.768;2022-10-16T13:32:27;100572.59;;;23.98;28.54
71151;BME280;59071;42.138;24.768;2022-10-16T13:34:52;100581.78;;;24.49;28.00
71151;BME280;59071;42.138;24.768;2022-10-16T13:37:21;100579.31;;;24.63;27.60
71151;BME280;59071;42.138;24.768;2022-10-16T13:39:47;100577.97;;;24.55;27.56
71151;BME280;59071;42.138;24.768;2022-10-16T13:42:32;100576.81;;;24.76;27.54
71151;BME280;59071;42.138;24.768;2022-10-16T13:44:58;100582.38;;;25.11;27.31
71151;BME280;59071;42.138;24.768;2022-10-16T13:47:26;100576.88;;;24.46;27.58
71151;BME280;59071;42.138;24.768;2022-10-16T13:50:05;100574.19;;;23.74;28.28
71151;BME280;59071;42.138;24.768;2022-10-16T13:52:31;100577.75;;;23.74;28.38
71151;BME280;59071;42.138;24.768;2022-10-16T13:54:57;100583.19;;;24.15;28.26
71151;BME280;59071;42.138;24.768;2022-10-16T13:57:24;100577.41;;;24.43;27.84
71151;BME280;59071;42.138;24.768;2022-10-16T13:59:50;100575.31;;;24.24;27.76
71151;BME280;59071;42.138;24.768;2022-10-16T14:02:27;100572.03;;;23.76;28.48
71151;BME280;59071;42.138;24.768;2022-10-16T14:04:54;100582.88;;;23.50;28.51
71151;BME280;59071;42.138;24.768;2022-10-16T14:07:26;100572.38;;;22.91;29.81
71151;BME280;59071;42.138;24.768;2022-10-16T14:09:53;100585.97;;;22.43;30.41
71151;BME280;59071;42.138;24.768;2022-10-16T14:12:19;100583.34;;;22.21;30.73
71151;BME280;59071;42.138;24.768;2022-10-16T14:14:49;100583.66;;;22.24;30.53
71151;BME280;59071;42.138;24.768;2022-10-16T14:19:47;100587.34;;;22.13;30.60
71151;BME280;59071;42.138;24.768;2022-10-16T14:22:38;100578.69;;;22.54;29.88
71151;BME280;59071;42.138;24.768;2022-10-16T14:25:24;100582.16;;;22.44;30.23
71151;BME280;59071;42.138;24.768;2022-10-16T14:28:17;100583.81;;;22.50;29.70
71151;BME280;59071;42.138;24.768;2022-10-16T14:30:57;100579.78;;;22.15;30.53
71151;BME280;59071;42.138;24.768;2022-10-16T14:36:12;100588.66;;;22.05;30.59
71151;BME280;59071;42.138;24.768;2022-10-16T14:38:39;100591.13;;;21.80;30.62
71151;BME280;59071;42.138;24.768;2022-10-16T14:41:06;100596.06;;;21.83;31.07
71151;BME280;59071;42.138;24.768;2022-10-16T14:43:40;100586.16;;;21.99;30.53
71151;BME280;59071;42.138;24.768;2022-10-16T14:46:13;100589.97;;;21.98;30.94